CFG825 EDDL-EDLP
Flight info
| Callsign | CFG825 |
|---|---|
| Flight time | 0h 38m |
| Altitude | 13000 |
| Route | MEVEL1Z MEVEL Z44 HMM L620 EXOBA EXOBA3H |
| Aircraft | A321/M-SDE3FGHIRWY/LB1 |
Departure
| Time | 2026-05-06 13:18 |
|---|---|
| Airport | Düsseldorf Airport (EDDL) |
Arrival
| Time | 2026-05-06 13:56 |
|---|---|
| Airport | Paderborn Lippstadt Airport (EDLP) |
| Time | Latitude | Longitude | Altitude | Speed | Heading |
|---|---|---|---|---|---|
| 2026-05-06 12:56 | 51.28194 | 6.76547 | 131 ft | 0 kts | 96° |
| 2026-05-06 12:57 | 51.28194 | 6.76548 | 126 ft | 0 kts | 96° |
| 2026-05-06 13:08 | 51.28195 | 6.76528 | 125 ft | 4 kts | 93° |
| 2026-05-06 13:09 | 51.28194 | 6.76485 | 126 ft | 4 kts | 79° |
| 2026-05-06 13:09 | 51.28186 | 6.76446 | 126 ft | 4 kts | 50° |
| 2026-05-06 13:09 | 51.28170 | 6.76428 | 126 ft | 1 kts | 7° |
| 2026-05-06 13:09 | 51.28165 | 6.76427 | 126 ft | 0 kts | 7° |
| 2026-05-06 13:13 | 51.28171 | 6.76428 | 130 ft | 5 kts | 7° |
| 2026-05-06 13:13 | 51.28208 | 6.76435 | 130 ft | 0 kts | 7° |
| 2026-05-06 13:14 | 51.28222 | 6.76440 | 130 ft | 9 kts | 12° |
| 2026-05-06 13:14 | 51.28244 | 6.76456 | 128 ft | 0 kts | 40° |
| 2026-05-06 13:14 | 51.28244 | 6.76457 | 128 ft | 0 kts | 43° |
| 2026-05-06 13:14 | 51.28286 | 6.76501 | 125 ft | 11 kts | 6° |
| 2026-05-06 13:15 | 51.28314 | 6.76409 | 124 ft | 15 kts | 245° |
| 2026-05-06 13:15 | 51.28233 | 6.76235 | 125 ft | 20 kts | 232° |
| 2026-05-06 13:15 | 51.28151 | 6.76065 | 127 ft | 24 kts | 232° |
| 2026-05-06 13:15 | 51.28048 | 6.75848 | 128 ft | 23 kts | 234° |
| 2026-05-06 13:16 | 51.27964 | 6.75668 | 126 ft | 19 kts | 233° |
| 2026-05-06 13:16 | 51.27893 | 6.75520 | 125 ft | 14 kts | 232° |
| 2026-05-06 13:16 | 51.27844 | 6.75408 | 124 ft | 10 kts | 249° |
| 2026-05-06 13:16 | 51.27867 | 6.75330 | 122 ft | 9 kts | 326° |
| 2026-05-06 13:17 | 51.27974 | 6.75275 | 122 ft | 20 kts | 10° |
| 2026-05-06 13:17 | 51.28062 | 6.75417 | 123 ft | 22 kts | 53° |
| 2026-05-06 13:17 | 51.28265 | 6.75838 | 128 ft | 80 kts | 53° |
| 2026-05-06 13:17 | 51.28717 | 6.76790 | 132 ft | 133 kts | 52° |
| 2026-05-06 13:18 | 51.29355 | 6.78149 | 314 ft | 161 kts | 52° |
| 2026-05-06 13:18 | 51.29986 | 6.79622 | 993 ft | 160 kts | 54° |
| 2026-05-06 13:18 | 51.30600 | 6.81109 | 1662 ft | 160 kts | 53° |
| 2026-05-06 13:18 | 51.31256 | 6.82550 | 2129 ft | 167 kts | 49° |
| 2026-05-06 13:19 | 51.31974 | 6.83987 | 2306 ft | 186 kts | 49° |
| 2026-05-06 13:19 | 51.32837 | 6.85705 | 2439 ft | 209 kts | 49° |
| 2026-05-06 13:19 | 51.33782 | 6.87632 | 2601 ft | 231 kts | 49° |
| 2026-05-06 13:19 | 51.34963 | 6.89421 | 3122 ft | 237 kts | 34° |
| 2026-05-06 13:20 | 51.36464 | 6.90693 | 3608 ft | 251 kts | 17° |
| 2026-05-06 13:20 | 51.38189 | 6.91296 | 4327 ft | 257 kts | 9° |
| 2026-05-06 13:20 | 51.39973 | 6.91763 | 5084 ft | 262 kts | 9° |
| 2026-05-06 13:20 | 51.41764 | 6.92234 | 5823 ft | 267 kts | 9° |
| 2026-05-06 13:21 | 51.43623 | 6.92728 | 6537 ft | 272 kts | 9° |
| 2026-05-06 13:21 | 51.45511 | 6.93233 | 7247 ft | 277 kts | 9° |
| 2026-05-06 13:21 | 51.47433 | 6.93748 | 7965 ft | 281 kts | 8° |
| 2026-05-06 13:21 | 51.49364 | 6.94181 | 8661 ft | 285 kts | 1° |
| 2026-05-06 13:22 | 51.51383 | 6.93901 | 9382 ft | 288 kts | 349° |
| 2026-05-06 13:22 | 51.53373 | 6.93331 | 10040 ft | 294 kts | 349° |
| 2026-05-06 13:22 | 51.55451 | 6.92739 | 10198 ft | 317 kts | 349° |
| 2026-05-06 13:22 | 51.57693 | 6.92107 | 10331 ft | 339 kts | 348° |
| 2026-05-06 13:23 | 51.60094 | 6.91437 | 10459 ft | 359 kts | 349° |
| 2026-05-06 13:23 | 51.62579 | 6.90744 | 11017 ft | 364 kts | 351° |
| 2026-05-06 13:23 | 51.65087 | 6.90085 | 11700 ft | 366 kts | 354° |
| 2026-05-06 13:23 | 51.67676 | 6.90151 | 12292 ft | 370 kts | 9° |
| 2026-05-06 13:24 | 51.70143 | 6.91240 | 12743 ft | 375 kts | 22° |
| 2026-05-06 13:24 | 51.72424 | 6.93333 | 12842 ft | 384 kts | 38° |
| 2026-05-06 13:24 | 51.74347 | 6.96437 | 12855 ft | 400 kts | 52° |
| 2026-05-06 13:24 | 51.76004 | 7.00100 | 12851 ft | 405 kts | 54° |
| 2026-05-06 13:25 | 51.77667 | 7.03784 | 12847 ft | 404 kts | 53° |
| 2026-05-06 13:25 | 51.79296 | 7.07378 | 12665 ft | 390 kts | 53° |
| 2026-05-06 13:25 | 51.80908 | 7.10915 | 12184 ft | 383 kts | 53° |
| 2026-05-06 13:25 | 51.82464 | 7.14320 | 11673 ft | 378 kts | 53° |
| 2026-05-06 13:26 | 51.83843 | 7.17902 | 11196 ft | 372 kts | 62° |
| 2026-05-06 13:26 | 51.84820 | 7.21748 | 10691 ft | 368 kts | 71° |
| 2026-05-06 13:26 | 51.85385 | 7.25770 | 10165 ft | 366 kts | 80° |
| 2026-05-06 13:26 | 51.85530 | 7.29877 | 9868 ft | 366 kts | 87° |
| 2026-05-06 13:27 | 51.85533 | 7.33929 | 9830 ft | 350 kts | 89° |
| 2026-05-06 13:27 | 51.85535 | 7.37764 | 9837 ft | 332 kts | 91° |
| 2026-05-06 13:27 | 51.85266 | 7.41394 | 9728 ft | 319 kts | 96° |
| 2026-05-06 13:27 | 51.84954 | 7.44888 | 9596 ft | 307 kts | 96° |
| 2026-05-06 13:28 | 51.84652 | 7.48252 | 9453 ft | 296 kts | 96° |
| 2026-05-06 13:28 | 51.84359 | 7.51511 | 9172 ft | 290 kts | 97° |
| 2026-05-06 13:28 | 51.84069 | 7.54727 | 8818 ft | 287 kts | 97° |
| 2026-05-06 13:28 | 51.83781 | 7.57912 | 8454 ft | 285 kts | 98° |
| 2026-05-06 13:29 | 51.83494 | 7.61070 | 8069 ft | 283 kts | 97° |
| 2026-05-06 13:29 | 51.83207 | 7.64208 | 7699 ft | 281 kts | 97° |
| 2026-05-06 13:29 | 51.82921 | 7.67336 | 7343 ft | 279 kts | 98° |
| 2026-05-06 13:29 | 51.82638 | 7.70435 | 6983 ft | 277 kts | 98° |
| 2026-05-06 13:30 | 51.82378 | 7.73513 | 6831 ft | 275 kts | 94° |
| 2026-05-06 13:30 | 51.82258 | 7.76605 | 6841 ft | 277 kts | 92° |
| 2026-05-06 13:30 | 51.82170 | 7.79714 | 6836 ft | 277 kts | 92° |
| 2026-05-06 13:30 | 51.82110 | 7.82853 | 6839 ft | 282 kts | 92° |
| 2026-05-06 13:31 | 51.82074 | 7.86000 | 6832 ft | 284 kts | 91° |
| 2026-05-06 13:31 | 51.82039 | 7.89234 | 6829 ft | 284 kts | 92° |
| 2026-05-06 13:31 | 51.81910 | 7.92386 | 6626 ft | 283 kts | 98° |
| 2026-05-06 13:31 | 51.81575 | 7.95512 | 6379 ft | 282 kts | 104° |
| 2026-05-06 13:32 | 51.81029 | 7.98580 | 6129 ft | 280 kts | 110° |
| 2026-05-06 13:32 | 51.80276 | 8.01524 | 5865 ft | 279 kts | 117° |
| 2026-05-06 13:32 | 51.79340 | 8.04248 | 5628 ft | 275 kts | 123° |
| 2026-05-06 13:32 | 51.78840 | 8.05451 | 5518 ft | 275 kts | 127° |
| 2026-05-06 13:33 | 51.77840 | 8.08069 | 5492 ft | 276 kts | 110° |
| 2026-05-06 13:33 | 51.77503 | 8.11115 | 5493 ft | 278 kts | 94° |
| 2026-05-06 13:33 | 51.77410 | 8.14224 | 5489 ft | 277 kts | 92° |
| 2026-05-06 13:33 | 51.77343 | 8.17367 | 6007 ft | 280 kts | 92° |
| 2026-05-06 13:34 | 51.77331 | 8.20539 | 6584 ft | 285 kts | 89° |
| 2026-05-06 13:34 | 51.77380 | 8.23736 | 6767 ft | 286 kts | 89° |
| 2026-05-06 13:34 | 51.77439 | 8.26944 | 6817 ft | 285 kts | 89° |
| 2026-05-06 13:34 | 51.77512 | 8.30121 | 6817 ft | 287 kts | 89° |
| 2026-05-06 13:35 | 51.77608 | 8.33346 | 6818 ft | 288 kts | 89° |
| 2026-05-06 13:35 | 51.77705 | 8.36574 | 6740 ft | 287 kts | 89° |
| 2026-05-06 13:35 | 51.77804 | 8.39836 | 6389 ft | 286 kts | 89° |
| 2026-05-06 13:35 | 51.77894 | 8.42999 | 6065 ft | 284 kts | 89° |
| 2026-05-06 13:36 | 51.77979 | 8.46160 | 5710 ft | 281 kts | 89° |
| 2026-05-06 13:36 | 51.78054 | 8.49325 | 5334 ft | 279 kts | 89° |
| 2026-05-06 13:36 | 51.78117 | 8.52455 | 4961 ft | 277 kts | 89° |
| 2026-05-06 13:36 | 51.78170 | 8.55557 | 4587 ft | 276 kts | 89° |
| 2026-05-06 13:37 | 51.78213 | 8.58655 | 4217 ft | 274 kts | 90° |
| 2026-05-06 13:37 | 51.77921 | 8.61642 | 3868 ft | 270 kts | 110° |
| 2026-05-06 13:37 | 51.77234 | 8.64461 | 3475 ft | 270 kts | 113° |
| 2026-05-06 13:37 | 51.76490 | 8.67238 | 3108 ft | 268 kts | 114° |
| 2026-05-06 13:38 | 51.75740 | 8.69965 | 3026 ft | 268 kts | 114° |
| 2026-05-06 13:38 | 51.74981 | 8.72718 | 3024 ft | 268 kts | 114° |
| 2026-05-06 13:38 | 51.74220 | 8.75460 | 3020 ft | 267 kts | 114° |
| 2026-05-06 13:38 | 51.73469 | 8.78195 | 3021 ft | 267 kts | 115° |
| 2026-05-06 13:39 | 51.72396 | 8.80597 | 3020 ft | 265 kts | 145° |
| 2026-05-06 13:39 | 51.70700 | 8.81601 | 3017 ft | 262 kts | 182° |
| 2026-05-06 13:39 | 51.69041 | 8.80849 | 3015 ft | 241 kts | 220° |
| 2026-05-06 13:39 | 51.68101 | 8.78796 | 3035 ft | 225 kts | 251° |
| 2026-05-06 13:40 | 51.67484 | 8.76566 | 3040 ft | 214 kts | 241° |
| 2026-05-06 13:40 | 51.66679 | 8.74561 | 3035 ft | 211 kts | 239° |
| 2026-05-06 13:40 | 51.65831 | 8.72536 | 2458 ft | 226 kts | 238° |
| 2026-05-06 13:40 | 51.64977 | 8.70419 | 2071 ft | 223 kts | 241° |
| 2026-05-06 13:41 | 51.64236 | 8.68382 | 1939 ft | 200 kts | 242° |
| 2026-05-06 13:41 | 51.63546 | 8.66484 | 1503 ft | 189 kts | 237° |
| 2026-05-06 13:41 | 51.62738 | 8.64948 | 1371 ft | 167 kts | 221° |
| 2026-05-06 13:41 | 51.62113 | 8.63494 | 1635 ft | 163 kts | 244° |
| 2026-05-06 13:42 | 51.61494 | 8.61844 | 2200 ft | 187 kts | 233° |
| 2026-05-06 13:42 | 51.60546 | 8.60213 | 2747 ft | 210 kts | 227° |
| 2026-05-06 13:42 | 51.59474 | 8.58496 | 3009 ft | 220 kts | 227° |
| 2026-05-06 13:42 | 51.58393 | 8.56764 | 3196 ft | 219 kts | 227° |
| 2026-05-06 13:43 | 51.57312 | 8.55035 | 3436 ft | 219 kts | 227° |
| 2026-05-06 13:43 | 51.56227 | 8.53300 | 3688 ft | 220 kts | 227° |
| 2026-05-06 13:43 | 51.54963 | 8.51910 | 3933 ft | 225 kts | 201° |
| 2026-05-06 13:43 | 51.53394 | 8.51790 | 4019 ft | 231 kts | 169° |
| 2026-05-06 13:44 | 51.51994 | 8.53074 | 4030 ft | 237 kts | 136° |
| 2026-05-06 13:44 | 51.51223 | 8.55387 | 4032 ft | 239 kts | 102° |
| 2026-05-06 13:44 | 51.51328 | 8.58006 | 4029 ft | 237 kts | 69° |
| 2026-05-06 13:44 | 51.51830 | 8.59561 | 4040 ft | 236 kts | 57° |
| 2026-05-06 13:45 | 51.52737 | 8.61763 | 4034 ft | 236 kts | 53° |
| 2026-05-06 13:45 | 51.54593 | 8.66123 | 4033 ft | 236 kts | 54° |
| 2026-05-06 13:45 | 51.55520 | 8.68290 | 4034 ft | 236 kts | 54° |
| 2026-05-06 13:46 | 51.56465 | 8.70502 | 4020 ft | 244 kts | 54° |
| 2026-05-06 13:46 | 51.57440 | 8.72754 | 4027 ft | 246 kts | 54° |
| 2026-05-06 13:46 | 51.58423 | 8.75001 | 4037 ft | 246 kts | 54° |
| 2026-05-06 13:46 | 51.59409 | 8.77254 | 4033 ft | 247 kts | 54° |
| 2026-05-06 13:47 | 51.60397 | 8.79512 | 4032 ft | 247 kts | 54° |
| 2026-05-06 13:47 | 51.61383 | 8.81763 | 4026 ft | 246 kts | 54° |
| 2026-05-06 13:47 | 51.62369 | 8.84013 | 4026 ft | 246 kts | 53° |
| 2026-05-06 13:47 | 51.63353 | 8.86274 | 4014 ft | 244 kts | 53° |
| 2026-05-06 13:48 | 51.64315 | 8.88500 | 3640 ft | 241 kts | 52° |
| 2026-05-06 13:48 | 51.65253 | 8.90723 | 3223 ft | 239 kts | 53° |
| 2026-05-06 13:48 | 51.66169 | 8.92948 | 3014 ft | 236 kts | 54° |
| 2026-05-06 13:48 | 51.67074 | 8.95147 | 3012 ft | 236 kts | 54° |
| 2026-05-06 13:49 | 51.67981 | 8.97306 | 3004 ft | 235 kts | 50° |
| 2026-05-06 13:49 | 51.69242 | 8.98884 | 3006 ft | 229 kts | 18° |
| 2026-05-06 13:49 | 51.70797 | 8.99100 | 3003 ft | 227 kts | 345° |
| 2026-05-06 13:49 | 51.72174 | 8.98105 | 3008 ft | 208 kts | 322° |
| 2026-05-06 13:50 | 51.73092 | 8.96489 | 3008 ft | 185 kts | 300° |
| 2026-05-06 13:50 | 51.73538 | 8.94671 | 3004 ft | 168 kts | 281° |
| 2026-05-06 13:50 | 51.73591 | 8.92861 | 3032 ft | 155 kts | 264° |
| 2026-05-06 13:50 | 51.73326 | 8.91221 | 3016 ft | 150 kts | 248° |
| 2026-05-06 13:51 | 51.72809 | 8.89778 | 3012 ft | 148 kts | 239° |
| 2026-05-06 13:51 | 51.72248 | 8.88384 | 3019 ft | 148 kts | 238° |
| 2026-05-06 13:51 | 51.71690 | 8.86998 | 3029 ft | 147 kts | 239° |
| 2026-05-06 13:51 | 51.71134 | 8.85621 | 3017 ft | 147 kts | 239° |
| 2026-05-06 13:52 | 51.70577 | 8.84238 | 3015 ft | 147 kts | 240° |
| 2026-05-06 13:52 | 51.70009 | 8.82844 | 3040 ft | 148 kts | 239° |
| 2026-05-06 13:52 | 51.69443 | 8.81450 | 3041 ft | 148 kts | 241° |
| 2026-05-06 13:52 | 51.68885 | 8.80059 | 3041 ft | 147 kts | 241° |
| 2026-05-06 13:53 | 51.68324 | 8.78669 | 2978 ft | 149 kts | 242° |
| 2026-05-06 13:53 | 51.67760 | 8.77275 | 2830 ft | 148 kts | 241° |
| 2026-05-06 13:53 | 51.67199 | 8.75890 | 2657 ft | 147 kts | 241° |
| 2026-05-06 13:53 | 51.66641 | 8.74510 | 2474 ft | 148 kts | 238° |
| 2026-05-06 13:54 | 51.66073 | 8.73110 | 2262 ft | 149 kts | 240° |
| 2026-05-06 13:54 | 51.65511 | 8.71721 | 2060 ft | 147 kts | 240° |
| 2026-05-06 13:54 | 51.64971 | 8.70332 | 1796 ft | 149 kts | 242° |
| 2026-05-06 13:54 | 51.64406 | 8.68985 | 1603 ft | 143 kts | 236° |
| 2026-05-06 13:55 | 51.63803 | 8.67708 | 1392 ft | 145 kts | 236° |
| 2026-05-06 13:55 | 51.63314 | 8.66288 | 1220 ft | 147 kts | 245° |
| 2026-05-06 13:55 | 51.62786 | 8.64884 | 995 ft | 145 kts | 235° |
| 2026-05-06 13:55 | 51.62222 | 8.63601 | 780 ft | 137 kts | 239° |
| 2026-05-06 13:56 | 51.61717 | 8.62389 | 693 ft | 120 kts | 238° |
| 2026-05-06 13:56 | 51.61370 | 8.61528 | 712 ft | 65 kts | 237° |
| 2026-05-06 13:56 | 51.61202 | 8.61138 | 710 ft | 25 kts | 219° |
| 2026-05-06 13:56 | 51.61089 | 8.61036 | 716 ft | 17 kts | 204° |
| 2026-05-06 13:57 | 51.60997 | 8.61065 | 713 ft | 14 kts | 122° |
| 2026-05-06 13:57 | 51.60972 | 8.61210 | 711 ft | 13 kts | 102° |
| 2026-05-06 13:57 | 51.60959 | 8.61362 | 710 ft | 15 kts | 80° |
| 2026-05-06 13:57 | 51.61011 | 8.61507 | 714 ft | 15 kts | 57° |
| 2026-05-06 13:58 | 51.61066 | 8.61641 | 700 ft | 13 kts | 57° |
| 2026-05-06 13:58 | 51.61113 | 8.61758 | 697 ft | 13 kts | 58° |
| 2026-05-06 13:58 | 51.61167 | 8.61886 | 697 ft | 13 kts | 57° |
| 2026-05-06 13:58 | 51.61187 | 8.61940 | 699 ft | 4 kts | 69° |
| 2026-05-06 13:59 | 51.61178 | 8.61966 | 702 ft | 2 kts | 125° |
| 2026-05-06 13:59 | 51.61166 | 8.61984 | 702 ft | 4 kts | 144° |
| 2026-05-06 13:59 | 51.61157 | 8.61993 | 702 ft | 0 kts | 147° |
| 2026-05-06 13:59 | 51.61150 | 8.62000 | 700 ft | 0 kts | 147° |